TimeEST,TemperatureF,Dew PointF,Humidity,Sea Level PressureIn,VisibilityMPH,Wind Direction,Wind SpeedMPH,Gust SpeedMPH,PrecipitationIn,Events,Conditions,WindDirDegrees,DateUTC
12:15 AM,44.6,37.8,77,29.95,10.0,South,4.6,-,N/A,,Overcast,180,2012-12-24 05:15:00
12:35 AM,44.8,37.4,75,29.94,10.0,South,4.6,-,N/A,,Overcast,170,2012-12-24 05:35:00
12:55 AM,45.1,36.7,72,29.94,10.0,South,4.6,-,N/A,,Overcast,170,2012-12-24 05:55:00
1:15 AM,44.8,36.0,71,29.93,10.0,SSE,4.6,-,N/A,,Overcast,160,2012-12-24 06:15:00
1:35 AM,44.6,35.4,70,29.92,10.0,SSE,3.5,-,N/A,,Overcast,150,2012-12-24 06:35:00
1:55 AM,44.4,35.2,70,29.92,10.0,Calm,Calm,-,N/A,,Overcast,0,2012-12-24 06:55:00
2:15 AM,44.6,34.7,68,29.93,10.0,Calm,Calm,-,N/A,,Overcast,0,2012-12-24 07:15:00
2:35 AM,44.6,35.2,70,29.92,10.0,Calm,Calm,-,N/A,,Drizzle,0,2012-12-24 07:35:00
2:55 AM,43.9,36.0,74,29.92,10.0,SSE,3.5,-,N/A,,Drizzle,150,2012-12-24 07:55:00
3:15 AM,43.5,36.5,76,29.92,10.0,Calm,Calm,-,N/A,,Light Drizzle,0,2012-12-24 08:15:00
3:35 AM,43.3,36.9,78,29.91,10.0,SE,3.5,-,N/A,,Overcast,140,2012-12-24 08:35:00
3:55 AM,43.7,37.4,78,29.91,10.0,Calm,Calm,-,N/A,,Overcast,0,2012-12-24 08:55:00
4:15 AM,43.7,37.8,80,29.90,10.0,Calm,Calm,-,N/A,,Overcast,0,2012-12-24 09:15:00
4:35 AM,43.5,38.5,82,29.89,10.0,SSE,3.5,-,N/A,,Overcast,150,2012-12-24 09:35:00
4:55 AM,43.5,39.0,84,29.88,10.0,SE,3.5,-,N/A,,Overcast,140,2012-12-24 09:55:00
5:15 AM,43.2,39.2,86,29.88,10.0,ESE,3.5,-,N/A,,Overcast,120,2012-12-24 10:15:00
5:35 AM,43.3,39.9,88,29.87,10.0,Calm,Calm,-,N/A,,Overcast,0,2012-12-24 10:35:00
5:55 AM,43.2,40.1,89,29.87,10.0,SE,3.5,-,N/A,,Overcast,140,2012-12-24 10:55:00
6:15 AM,43.2,40.3,90,29.86,10.0,SE,5.8,-,N/A,,Overcast,140,2012-12-24 11:15:00
6:35 AM,43.5,41.0,91,29.87,10.0,South,5.8,-,N/A,,Drizzle,170,2012-12-24 11:35:00
6:55 AM,42.8,41.5,95,29.86,7.0,SE,6.9,-,N/A,,Drizzle,140,2012-12-24 11:55:00
7:15 AM,42.4,41.9,98,29.84,7.0,ESE,5.8,-,N/A,Rain,Rain,120,2012-12-24 12:15:00
7:35 AM,42.4,41.9,98,29.83,10.0,SE,5.8,-,N/A,,Drizzle,130,2012-12-24 12:35:00
7:55 AM,42.8,42.3,98,29.82,10.0,SE,5.8,-,N/A,,Overcast,130,2012-12-24 12:55:00
8:15 AM,43.0,42.4,98,29.82,10.0,South,3.5,-,N/A,,Overcast,170,2012-12-24 13:15:00
8:35 AM,43.3,42.4,97,29.82,10.0,SE,3.5,-,N/A,,Overcast,140,2012-12-24 13:35:00
8:55 AM,43.3,42.4,97,29.83,5.0,SSW,5.8,-,N/A,Rain,Light Rain,200,2012-12-24 13:55:00
9:15 AM,43.0,42.4,98,29.83,4.0,Calm,Calm,-,N/A,,Heavy Drizzle,0,2012-12-24 14:15:00
9:35 AM,43.3,42.8,98,29.82,7.0,SSE,4.6,-,N/A,Rain,Rain,150,2012-12-24 14:35:00
10:15 AM,43.9,43.0,97,29.83,10.0,South,4.6,-,N/A,Rain,Light Rain,170,2012-12-24 15:15:00
10:35 AM,43.9,43.2,97,29.82,10.0,SSE,4.6,-,N/A,,Overcast,150,2012-12-24 15:35:00
10:55 AM,44.2,43.3,97,29.81,10.0,Calm,Calm,-,N/A,,Light Drizzle,0,2012-12-24 15:55:00
11:15 AM,44.6,43.7,97,29.81,10.0,South,3.5,-,N/A,,Overcast,190,2012-12-24 16:15:00
11:35 AM,44.8,43.9,97,29.80,10.0,SSW,3.5,-,N/A,,Overcast,200,2012-12-24 16:35:00
11:55 AM,45.0,44.1,97,29.79,10.0,South,4.6,-,N/A,,Overcast,170,2012-12-24 16:55:00
12:15 PM,45.7,44.6,96,29.78,10.0,South,4.6,-,N/A,,Overcast,190,2012-12-24 17:15:00
12:35 PM,46.0,44.8,95,29.78,10.0,SSW,3.5,-,N/A,,Overcast,200,2012-12-24 17:35:00
12:55 PM,45.9,44.8,96,29.78,10.0,SW,3.5,-,N/A,,Overcast,230,2012-12-24 17:55:00
1:15 PM,45.7,45.0,97,29.78,3.0,WSW,3.5,-,N/A,,Overcast,240,2012-12-24 18:15:00
1:35 PM,45.5,45.0,98,29.78,4.0,Calm,Calm,-,N/A,,Overcast,0,2012-12-24 18:35:00
1:55 PM,45.7,45.5,99,29.78,2.5,SSW,3.5,-,N/A,,Light Drizzle,210,2012-12-24 18:55:00
2:15 PM,45.9,45.7,99,29.78,2.5,SW,4.6,-,N/A,,Light Drizzle,220,2012-12-24 19:15:00
2:35 PM,46.4,46.2,99,29.78,7.0,SW,3.5,-,N/A,,Overcast,230,2012-12-24 19:35:00
2:55 PM,46.6,46.4,99,29.78,10.0,SW,5.8,-,N/A,,Overcast,230,2012-12-24 19:55:00
3:15 PM,47.1,46.4,97,29.79,10.0,WSW,4.6,-,N/A,,Overcast,250,2012-12-24 20:15:00
3:35 PM,47.5,46.6,97,29.79,10.0,WSW,5.8,-,N/A,,Overcast,250,2012-12-24 20:35:00
3:55 PM,47.7,46.6,96,29.79,10.0,WSW,6.9,-,N/A,,Overcast,240,2012-12-24 20:55:00
4:15 PM,47.7,46.8,97,29.80,10.0,SW,4.6,-,N/A,,Overcast,220,2012-12-24 21:15:00
4:35 PM,47.8,46.8,96,29.80,10.0,WSW,4.6,-,N/A,,Overcast,240,2012-12-24 21:35:00
4:55 PM,48.2,46.4,93,29.82,10.0,WSW,4.6,-,N/A,,Overcast,250,2012-12-24 21:55:00
5:15 PM,47.8,46.6,95,29.83,7.0,WSW,5.8,-,N/A,,Light Drizzle,250,2012-12-24 22:15:00
5:35 PM,47.8,46.6,95,29.84,7.0,WSW,4.6,-,N/A,,Light Drizzle,250,2012-12-24 22:35:00
5:55 PM,47.7,46.4,95,29.84,10.0,West,3.5,-,N/A,,Overcast,270,2012-12-24 22:55:00
6:15 PM,47.7,46.4,95,29.85,10.0,WSW,3.5,-,N/A,,Overcast,250,2012-12-24 23:15:00
6:35 PM,47.7,46.4,95,29.87,10.0,WSW,3.5,-,N/A,,Overcast,250,2012-12-24 23:35:00
7:15 PM,47.3,46.2,96,29.87,10.0,WSW,3.5,-,N/A,,Overcast,250,2012-12-25 00:15:00
7:35 PM,47.5,46.0,95,29.88,10.0,West,4.6,-,N/A,,Overcast,260,2012-12-25 00:35:00
7:55 PM,47.3,46.0,95,29.89,10.0,WSW,3.5,-,N/A,,Overcast,250,2012-12-25 00:55:00
8:15 PM,47.7,46.2,95,29.90,10.0,WSW,4.6,-,N/A,,Overcast,240,2012-12-25 01:15:00
8:35 PM,47.7,46.2,95,29.90,10.0,WSW,4.6,-,N/A,,Overcast,240,2012-12-25 01:35:00
8:55 PM,47.7,45.9,93,29.90,10.0,Calm,Calm,-,N/A,,Overcast,0,2012-12-25 01:55:00
9:15 PM,47.5,45.9,94,29.90,10.0,SW,3.5,-,N/A,,Overcast,230,2012-12-25 02:15:00
9:35 PM,47.3,45.7,94,29.90,10.0,Calm,Calm,-,N/A,,Overcast,0,2012-12-25 02:35:00
9:55 PM,46.9,45.5,95,29.90,10.0,WSW,3.5,-,N/A,,Overcast,240,2012-12-25 02:55:00
10:15 PM,47.3,45.5,93,29.91,10.0,WSW,4.6,-,N/A,,Overcast,240,2012-12-25 03:15:00
10:35 PM,46.9,45.1,93,29.92,10.0,West,3.5,-,N/A,,Overcast,260,2012-12-25 03:35:00
10:55 PM,46.6,45.0,94,29.92,10.0,Calm,Calm,-,N/A,,Overcast,0,2012-12-25 03:55:00
11:15 PM,46.8,45.0,93,29.93,10.0,Calm,Calm,-,N/A,,Overcast,0,2012-12-25 04:15:00
11:35 PM,46.4,44.8,94,29.94,10.0,WSW,3.5,-,N/A,,Mostly Cloudy,240,2012-12-25 04:35:00
11:55 PM,46.4,45.0,95,29.94,10.0,West,3.5,-,N/A,,Overcast,260,2012-12-25 04:55:00